createdAt,value
2023-05-05T00:00:52.300Z,25.39
2023-05-05T00:03:20.476Z,25.30
2023-05-05T00:05:48.001Z,25.34
2023-05-05T00:08:15.167Z,25.33
2023-05-05T00:10:42.546Z,25.33
2023-05-05T00:13:11.283Z,25.33
2023-05-05T00:15:38.600Z,25.32
2023-05-05T00:18:05.780Z,25.27
2023-05-05T00:20:32.970Z,25.27
2023-05-05T00:23:00.216Z,25.27
2023-05-05T00:25:27.381Z,25.20
2023-05-05T00:27:54.520Z,25.29
2023-05-05T00:30:23.222Z,24.96
2023-05-05T00:32:50.378Z,24.48
2023-05-05T00:35:17.726Z,24.40
2023-05-05T00:37:44.825Z,24.35
2023-05-05T00:40:12.749Z,24.20
2023-05-05T00:42:43.031Z,24.28
2023-05-05T00:45:10.711Z,24.30
2023-05-05T00:47:39.588Z,24.27
2023-05-05T00:50:07.588Z,24.17
2023-05-05T00:52:35.612Z,24.17
2023-05-05T00:55:02.996Z,24.18
2023-05-05T00:57:30.322Z,24.10
2023-05-05T00:59:59.152Z,24.14
2023-05-05T01:02:26.354Z,24.06
2023-05-05T01:04:55.286Z,24.09
2023-05-05T01:07:29.156Z,24.10
2023-05-05T01:10:15.167Z,24.00
2023-05-05T01:12:51.641Z,24.03
2023-05-05T01:15:22.849Z,23.88
2023-05-05T01:17:54.056Z,23.81
2023-05-05T01:20:26.254Z,24.03
2023-05-05T01:22:57.237Z,23.94
2023-05-05T01:25:39.924Z,23.98
2023-05-05T01:28:11.510Z,23.85
2023-05-05T01:30:46.163Z,23.70
2023-05-05T01:33:18.909Z,23.97
2023-05-05T01:35:47.404Z,23.97
2023-05-05T01:38:15.312Z,24.00
2023-05-05T01:40:45.007Z,23.99
2023-05-05T01:43:13.947Z,23.88
2023-05-05T01:45:42.609Z,23.82
2023-05-05T01:48:10.652Z,23.88
2023-05-05T01:50:39.659Z,24.11
2023-05-05T01:53:08.084Z,24.48
2023-05-05T01:55:35.882Z,24.60
2023-05-05T01:58:03.767Z,24.75
2023-05-05T02:00:31.180Z,24.70
2023-05-05T02:02:59.288Z,24.70
2023-05-05T02:05:26.792Z,24.66
2023-05-05T02:07:57.963Z,24.75
2023-05-05T02:10:25.733Z,24.87
2023-05-05T02:12:53.945Z,24.77
2023-05-05T02:15:21.864Z,24.77
2023-05-05T02:17:50.827Z,24.79
2023-05-05T02:20:18.673Z,24.84
2023-05-05T02:22:45.995Z,24.75
2023-05-05T02:25:14.882Z,24.77
2023-05-05T02:27:43.174Z,24.74
2023-05-05T02:30:12.087Z,24.75
2023-05-05T02:32:43.217Z,24.63
2023-05-05T02:35:14.421Z,24.72
2023-05-05T02:37:45.208Z,24.46
2023-05-05T02:40:18.089Z,24.61
2023-05-05T02:42:47.393Z,24.59
2023-05-05T02:45:16.041Z,24.56
2023-05-05T02:47:46.176Z,24.41
2023-05-05T02:50:14.007Z,24.66
2023-05-05T02:52:48.134Z,24.67
2023-05-05T02:55:18.489Z,24.70
2023-05-05T02:57:49.934Z,24.64
2023-05-05T03:00:23.027Z,24.62
2023-05-05T03:02:55.092Z,24.57
2023-05-05T03:05:23.877Z,24.64
2023-05-05T03:07:54.939Z,24.74
2023-05-05T03:10:28.541Z,24.78
2023-05-05T03:12:58.636Z,24.87
2023-05-05T03:15:36.886Z,24.73
2023-05-05T03:18:06.558Z,24.75
2023-05-05T03:20:34.697Z,24.61
2023-05-05T03:23:07.524Z,24.60
2023-05-05T03:25:46.450Z,24.64
2023-05-05T03:28:26.927Z,24.30
2023-05-05T03:30:55.308Z,24.66
2023-05-05T03:33:22.685Z,24.49
2023-05-05T03:35:50.127Z,24.23
2023-05-05T03:38:18.258Z,24.49
2023-05-05T03:40:47.589Z,24.48
2023-05-05T03:43:18.284Z,24.81
2023-05-05T03:45:45.554Z,24.51
2023-05-05T03:48:12.892Z,24.54
2023-05-05T03:50:44.633Z,24.75
2023-05-05T03:53:13.198Z,24.88
2023-05-05T03:55:41.328Z,24.39
2023-05-05T03:58:09.971Z,24.27
2023-05-05T04:00:37.296Z,24.56
2023-05-05T04:03:05.233Z,24.81
2023-05-05T04:05:32.560Z,24.88
2023-05-05T04:07:59.791Z,25.02
2023-05-05T04:10:27.015Z,25.03
2023-05-05T04:12:54.786Z,25.04
2023-05-05T04:15:23.565Z,25.14
2023-05-05T04:17:50.891Z,25.19
2023-05-05T04:20:18.222Z,24.99
2023-05-05T04:22:45.347Z,24.90
2023-05-05T04:25:12.647Z,25.09
2023-05-05T04:27:39.776Z,25.07
2023-05-05T04:30:08.630Z,25.15
2023-05-05T04:32:39.589Z,25.42
2023-05-05T04:35:07.629Z,25.16
2023-05-05T04:37:34.728Z,25.25
2023-05-05T04:40:01.869Z,25.23
2023-05-05T04:42:31.095Z,25.75
2023-05-05T04:44:58.369Z,25.52
2023-05-05T04:47:25.860Z,25.43
2023-05-05T04:49:56.021Z,25.54
2023-05-05T04:52:23.377Z,25.74
2023-05-05T04:54:51.748Z,25.79
2023-05-05T04:57:18.927Z,25.70
2023-05-05T04:59:46.154Z,25.60
2023-05-05T05:02:13.441Z,25.21
2023-05-05T05:04:40.654Z,24.92
2023-05-05T05:07:09.276Z,25.23
2023-05-05T05:09:36.356Z,25.32
2023-05-05T05:12:03.712Z,25.47
2023-05-05T05:14:30.925Z,25.33
2023-05-05T05:16:58.034Z,25.74
2023-05-05T05:19:25.187Z,25.48
2023-05-05T05:21:52.923Z,25.02
2023-05-05T05:24:21.550Z,24.94
2023-05-05T05:26:48.733Z,25.13
2023-05-05T05:29:16.333Z,25.54
2023-05-05T05:31:43.729Z,25.10
2023-05-05T05:34:12.803Z,24.65
2023-05-05T05:36:41.489Z,24.42
2023-05-05T05:39:08.654Z,24.18
2023-05-05T05:41:37.265Z,24.58
2023-05-05T05:44:04.505Z,24.48
2023-05-05T05:46:32.140Z,24.32
2023-05-05T05:48:59.346Z,24.25
2023-05-05T05:51:27.192Z,25.25
2023-05-05T05:53:55.103Z,24.51
2023-05-05T05:56:23.723Z,24.93
2023-05-05T05:58:53.301Z,25.30
2023-05-05T06:01:20.861Z,25.11
2023-05-05T06:03:48.448Z,24.21
2023-05-05T06:06:16.170Z,24.08
2023-05-05T06:08:44.838Z,24.07
2023-05-05T06:11:12.031Z,24.07
2023-05-05T06:13:39.225Z,24.20
2023-05-05T06:16:08.750Z,24.22
2023-05-05T06:18:37.536Z,24.19
2023-05-05T06:21:04.808Z,24.59
2023-05-05T06:23:32.345Z,24.15
2023-05-05T06:26:04.250Z,24.27
2023-05-05T06:28:31.361Z,24.18
2023-05-05T06:30:58.454Z,25.15
2023-05-05T06:33:27.072Z,25.62
2023-05-05T06:35:54.319Z,25.54
2023-05-05T06:38:21.494Z,25.81
2023-05-05T06:40:48.620Z,25.67
2023-05-05T06:43:15.949Z,25.74
2023-05-05T06:45:48.205Z,24.88
2023-05-05T06:48:15.361Z,24.44
2023-05-05T06:50:44.072Z,24.42
2023-05-05T06:53:11.206Z,24.55
2023-05-05T06:55:38.388Z,24.40
2023-05-05T06:58:05.574Z,24.77
2023-05-05T07:00:32.998Z,24.44
2023-05-05T07:03:00.313Z,25.42
2023-05-05T07:05:27.548Z,25.10
2023-05-05T07:07:56.745Z,25.15
2023-05-05T07:10:24.703Z,24.61
2023-05-05T07:12:52.307Z,24.62
2023-05-05T07:15:27.353Z,24.56
2023-05-05T07:17:56.119Z,24.90
2023-05-05T07:20:23.384Z,24.19
2023-05-05T07:22:50.510Z,24.74
2023-05-05T07:25:19.299Z,24.43
2023-05-05T07:27:46.495Z,25.07
2023-05-05T07:30:18.752Z,24.21
2023-05-05T07:32:46.470Z,24.36
2023-05-05T07:35:13.786Z,24.26
2023-05-05T07:37:40.962Z,24.40
2023-05-05T07:40:08.939Z,25.11
2023-05-05T07:42:37.783Z,25.04
2023-05-05T07:45:05.421Z,24.69
2023-05-05T07:47:32.704Z,24.73
2023-05-05T07:50:01.205Z,24.59
2023-05-05T07:52:44.230Z,24.61
2023-05-05T07:55:13.668Z,24.33
2023-05-05T07:57:42.312Z,24.86
2023-05-05T08:00:10.210Z,25.84
2023-05-05T08:02:40.646Z,25.72
2023-05-05T08:05:08.578Z,25.51
2023-05-05T08:07:36.088Z,25.77
2023-05-05T08:10:03.231Z,26.04
2023-05-05T08:12:30.476Z,25.60
2023-05-05T08:14:59.075Z,25.77
2023-05-05T08:17:26.378Z,25.99
2023-05-05T08:19:53.573Z,26.03
2023-05-05T08:22:21.403Z,25.99
2023-05-05T08:24:48.607Z,26.03
2023-05-05T08:27:15.858Z,26.02
2023-05-05T08:29:42.976Z,25.67
2023-05-05T08:32:12.053Z,25.83
2023-05-05T08:34:39.296Z,25.94
2023-05-05T08:37:06.502Z,25.64
2023-05-05T08:39:33.626Z,25.85
2023-05-05T08:42:00.909Z,25.62
2023-05-05T08:44:28.283Z,25.80
2023-05-05T08:46:56.496Z,26.06
2023-05-05T08:49:25.830Z,26.02
2023-05-05T08:51:54.374Z,25.97
2023-05-05T08:54:23.767Z,26.09
2023-05-05T08:56:51.419Z,25.51
2023-05-05T08:59:19.090Z,25.86
2023-05-05T09:01:47.079Z,25.90
2023-05-05T09:04:14.464Z,25.97
2023-05-05T09:06:43.096Z,25.83
2023-05-05T09:09:10.399Z,25.71
2023-05-05T09:11:37.904Z,25.82
2023-05-05T09:14:05.010Z,25.60
2023-05-05T09:16:32.435Z,25.99
2023-05-05T09:19:03.282Z,25.56
2023-05-05T09:21:30.972Z,25.75
2023-05-05T09:24:08.407Z,25.31
2023-05-05T09:26:36.975Z,25.34
2023-05-05T09:29:04.170Z,25.87
2023-05-05T09:31:31.795Z,26.03
2023-05-05T09:33:59.954Z,26.09
2023-05-05T09:36:41.311Z,25.99
2023-05-05T09:39:10.111Z,26.16
2023-05-05T09:41:38.113Z,26.09
2023-05-05T09:44:05.483Z,25.95
2023-05-05T09:46:32.794Z,26.28
2023-05-05T09:49:12.211Z,26.43
2023-05-05T09:51:39.621Z,25.40
2023-05-05T09:54:06.891Z,25.11
2023-05-05T09:56:39.132Z,25.03
2023-05-05T09:59:09.215Z,25.79
2023-05-05T10:01:36.426Z,26.07
2023-05-05T10:04:03.564Z,26.35
2023-05-05T10:06:40.403Z,26.20
2023-05-05T10:09:07.563Z,26.25
2023-05-05T10:11:35.316Z,26.34
2023-05-05T10:14:06.728Z,25.75
2023-05-05T10:16:35.892Z,25.32
2023-05-05T10:19:03.507Z,26.22
2023-05-05T10:21:33.411Z,26.39
2023-05-05T10:24:06.818Z,26.13
2023-05-05T10:26:34.968Z,25.53
2023-05-05T10:29:07.905Z,25.13
2023-05-05T10:31:41.873Z,25.34
2023-05-05T10:34:10.865Z,25.19
2023-05-05T10:36:38.395Z,25.55
2023-05-05T10:39:05.977Z,25.97
2023-05-05T10:41:33.380Z,26.26
2023-05-05T10:44:03.644Z,26.30
2023-05-05T10:46:33.502Z,26.36
2023-05-05T10:49:05.143Z,26.41
2023-05-05T10:51:40.489Z,26.42
2023-05-05T10:54:10.909Z,26.29
2023-05-05T10:56:40.178Z,26.54
2023-05-05T10:59:22.083Z,26.35
2023-05-05T11:01:50.737Z,26.48
2023-05-05T11:04:18.543Z,26.58
2023-05-05T11:07:03.948Z,26.11
2023-05-05T11:09:31.255Z,25.79
2023-05-05T11:12:03.026Z,25.52
2023-05-05T11:14:30.560Z,25.72
2023-05-05T11:16:59.264Z,26.06
2023-05-05T11:19:41.133Z,26.09
2023-05-05T11:22:08.303Z,25.70
2023-05-05T11:24:35.816Z,25.55
2023-05-05T11:27:03.251Z,26.46
2023-05-05T11:29:45.366Z,25.88
2023-05-05T11:32:14.236Z,26.35
2023-05-05T11:34:48.459Z,25.80
2023-05-05T11:37:16.115Z,26.20
2023-05-05T11:39:47.615Z,26.36
2023-05-05T11:42:22.584Z,26.44
2023-05-05T11:44:49.687Z,26.41
2023-05-05T11:47:28.772Z,26.27
2023-05-05T11:49:56.095Z,26.49
2023-05-05T11:52:25.418Z,26.36
2023-05-05T11:54:53.216Z,26.54
2023-05-05T11:57:21.376Z,26.14
2023-05-05T11:59:54.353Z,26.00
2023-05-05T12:02:21.775Z,26.19
2023-05-05T12:04:50.908Z,26.28
2023-05-05T12:07:18.781Z,26.11
2023-05-05T12:09:46.353Z,25.75
2023-05-05T12:12:13.944Z,26.63
2023-05-05T12:14:48.535Z,26.67
2023-05-05T12:17:15.741Z,26.43
2023-05-05T12:19:46.517Z,26.46
2023-05-05T12:22:19.964Z,26.64
2023-05-05T12:24:54.438Z,26.59
2023-05-05T12:27:22.138Z,26.48
2023-05-05T12:29:49.629Z,25.77
2023-05-05T12:32:20.545Z,25.53
2023-05-05T12:34:48.213Z,25.92
2023-05-05T12:37:15.557Z,25.71
2023-05-05T12:39:44.535Z,25.83
2023-05-05T12:42:11.602Z,26.02
2023-05-05T12:44:39.648Z,26.16
2023-05-05T12:47:07.142Z,26.42
2023-05-05T12:49:44.949Z,26.35
2023-05-05T12:52:12.059Z,26.52
2023-05-05T12:54:54.744Z,26.56
2023-05-05T12:57:22.541Z,26.42
2023-05-05T12:59:49.947Z,26.42
2023-05-05T13:02:17.043Z,26.31
2023-05-05T13:04:51.264Z,26.09
2023-05-05T13:07:18.896Z,26.04
2023-05-05T13:09:46.372Z,25.78
2023-05-05T13:12:15.102Z,26.53
2023-05-05T13:14:42.226Z,26.54
2023-05-05T13:17:10.140Z,27.03
2023-05-05T13:19:37.358Z,26.89
2023-05-05T13:22:04.475Z,26.71
2023-05-05T13:24:42.275Z,27.11
2023-05-05T13:27:15.582Z,26.68
2023-05-05T13:29:42.644Z,27.01
2023-05-05T13:32:09.709Z,26.58
2023-05-05T13:34:36.896Z,25.94
2023-05-05T13:37:03.998Z,25.73
2023-05-05T13:39:31.088Z,26.78
2023-05-05T13:41:58.240Z,26.91
2023-05-05T13:44:26.783Z,26.94
2023-05-05T13:46:54.079Z,27.20
2023-05-05T13:49:21.394Z,26.83
2023-05-05T13:51:48.666Z,26.33
2023-05-05T13:54:15.888Z,26.41
2023-05-05T13:56:43.132Z,26.66
2023-05-05T13:59:10.620Z,26.56
2023-05-05T14:01:39.326Z,26.43
2023-05-05T14:04:06.549Z,26.02
2023-05-05T14:06:34.308Z,26.11
2023-05-05T14:09:01.418Z,26.45
2023-05-05T14:11:28.754Z,26.69
2023-05-05T14:13:55.856Z,25.98
2023-05-05T14:16:23.140Z,26.52
2023-05-05T14:18:52.754Z,26.18
2023-05-05T14:21:19.813Z,26.56
2023-05-05T14:23:46.967Z,26.55
2023-05-05T14:26:14.118Z,26.94
2023-05-05T14:28:41.181Z,27.00
2023-05-05T14:31:08.277Z,27.08
2023-05-05T14:33:35.372Z,27.13
2023-05-05T14:36:04.043Z,27.13
2023-05-05T14:38:31.188Z,27.11
2023-05-05T14:40:58.411Z,26.98
2023-05-05T14:43:25.604Z,26.70
2023-05-05T14:45:52.749Z,26.74
2023-05-05T14:48:19.934Z,26.86
2023-05-05T14:50:47.002Z,26.72
2023-05-05T14:53:15.526Z,26.54
2023-05-05T14:55:42.597Z,26.37
2023-05-05T14:58:10.089Z,26.39
2023-05-05T15:00:37.237Z,26.36
2023-05-05T15:03:04.455Z,26.36
2023-05-05T15:05:31.638Z,26.37
2023-05-05T15:07:58.776Z,26.28
2023-05-05T15:10:27.330Z,26.28
2023-05-05T15:12:54.947Z,26.31
2023-05-05T15:15:22.129Z,26.15
2023-05-05T15:17:49.268Z,26.23
2023-05-05T15:20:16.375Z,26.17
2023-05-05T15:22:43.597Z,26.10
2023-05-05T15:25:11.102Z,26.12
2023-05-05T15:27:39.857Z,26.20
2023-05-05T15:30:07.720Z,26.22
2023-05-05T15:32:34.881Z,26.14
2023-05-05T15:35:02.115Z,26.21
2023-05-05T15:37:29.214Z,26.08
2023-05-05T15:39:56.482Z,26.02
2023-05-05T15:42:23.999Z,25.73
2023-05-05T15:44:52.493Z,26.30
2023-05-05T15:47:19.783Z,26.33
2023-05-05T15:49:46.992Z,26.32
2023-05-05T15:52:14.111Z,26.39
2023-05-05T15:54:41.183Z,26.27
2023-05-05T15:57:08.439Z,26.09
2023-05-05T15:59:35.685Z,25.89
2023-05-05T16:02:04.260Z,25.86
2023-05-05T16:04:31.889Z,26.00
2023-05-05T16:06:58.958Z,25.71
2023-05-05T16:09:26.042Z,25.85
2023-05-05T16:11:53.548Z,25.84
2023-05-05T16:14:20.620Z,25.79
2023-05-05T16:16:47.797Z,25.67
2023-05-05T16:19:16.457Z,25.55
2023-05-05T16:21:43.516Z,25.59
2023-05-05T16:24:10.591Z,25.58
2023-05-05T16:26:37.760Z,25.48
2023-05-05T16:29:04.877Z,25.52
2023-05-05T16:31:32.354Z,25.37
2023-05-05T16:33:59.450Z,25.55
2023-05-05T16:36:28.073Z,25.45
2023-05-05T16:38:55.225Z,25.50
2023-05-05T16:41:22.372Z,25.53
2023-05-05T16:43:49.714Z,25.45
2023-05-05T16:46:17.083Z,25.53
2023-05-05T16:48:44.660Z,25.53
2023-05-05T16:51:12.123Z,25.45
2023-05-05T16:53:40.882Z,25.56
2023-05-05T16:56:11.249Z,25.45
2023-05-05T16:58:38.413Z,25.29
2023-05-05T17:01:06.372Z,25.20
2023-05-05T17:03:33.428Z,25.13
2023-05-05T17:06:00.773Z,25.18
2023-05-05T17:08:28.132Z,25.19
2023-05-05T17:10:56.664Z,25.18
2023-05-05T17:13:23.889Z,25.28
2023-05-05T17:15:50.996Z,25.14
2023-05-05T17:18:18.153Z,25.13
2023-05-05T17:20:45.444Z,25.19
2023-05-05T17:23:12.610Z,25.17
2023-05-05T17:25:40.454Z,25.13
2023-05-05T17:28:09.353Z,25.08
2023-05-05T17:30:36.541Z,25.00
2023-05-05T17:33:04.218Z,25.05
2023-05-05T17:35:31.940Z,25.06
2023-05-05T17:37:59.344Z,25.05
2023-05-05T17:40:27.308Z,24.93
2023-05-05T17:42:54.836Z,24.98
2023-05-05T17:45:23.901Z,25.00
2023-05-05T17:47:51.648Z,24.83
2023-05-05T17:50:19.150Z,24.98
2023-05-05T17:52:46.606Z,24.75
2023-05-05T17:55:13.926Z,24.92
2023-05-05T17:57:41.640Z,24.89
2023-05-05T18:00:09.682Z,24.96
2023-05-05T18:02:41.390Z,24.86
2023-05-05T18:05:09.699Z,25.16
2023-05-05T18:07:37.566Z,24.67
2023-05-05T18:10:05.001Z,24.76
2023-05-05T18:12:32.222Z,24.88
2023-05-05T18:14:59.526Z,24.68
2023-05-05T18:17:26.905Z,24.80
2023-05-05T18:19:55.488Z,24.88
2023-05-05T18:22:22.605Z,24.80
2023-05-05T18:24:50.054Z,24.72
2023-05-05T18:27:17.272Z,24.75
2023-05-05T18:29:45.065Z,24.73
2023-05-05T18:32:12.232Z,24.64
2023-05-05T18:34:39.308Z,24.67
2023-05-05T18:37:07.813Z,24.55
2023-05-05T18:39:34.884Z,24.56
2023-05-05T18:42:02.049Z,24.57
2023-05-05T18:44:29.100Z,24.60
2023-05-05T18:46:56.268Z,24.74
2023-05-05T18:49:23.895Z,24.68
2023-05-05T18:51:50.960Z,24.58
2023-05-05T18:54:19.641Z,24.64
2023-05-05T18:56:46.729Z,24.55
2023-05-05T18:59:13.888Z,24.53
2023-05-05T19:01:42.990Z,24.70
2023-05-05T19:04:26.625Z,24.63
2023-05-05T19:06:58.127Z,24.52
2023-05-05T19:09:26.880Z,24.46
2023-05-05T19:11:53.969Z,24.45
2023-05-05T19:14:21.028Z,24.50
2023-05-05T19:16:48.265Z,24.57
2023-05-05T19:19:15.341Z,24.46
2023-05-05T19:21:42.476Z,24.49
2023-05-05T19:24:09.801Z,24.50
2023-05-05T19:26:38.540Z,24.43
2023-05-05T19:29:05.608Z,24.45
2023-05-05T19:31:32.786Z,24.51
2023-05-05T19:34:01.083Z,24.46
2023-05-05T19:36:28.295Z,24.43
2023-05-05T19:38:55.849Z,24.42
2023-05-05T19:41:22.956Z,24.39
2023-05-05T19:43:51.573Z,24.43
2023-05-05T19:46:19.233Z,24.41
2023-05-05T19:48:46.422Z,24.43
2023-05-05T19:51:13.548Z,24.49
2023-05-05T19:53:40.611Z,24.86
2023-05-05T19:56:07.773Z,25.01
2023-05-05T19:58:52.574Z,25.03
2023-05-05T20:01:21.538Z,25.18
2023-05-05T20:03:48.832Z,25.21
2023-05-05T20:06:16.464Z,25.18
2023-05-05T20:08:43.706Z,25.19
2023-05-05T20:11:11.346Z,25.17
2023-05-05T20:13:38.457Z,25.25
2023-05-05T20:16:06.351Z,25.26
2023-05-05T20:18:34.929Z,25.20
2023-05-05T20:21:02.426Z,25.35
2023-05-05T20:23:29.763Z,25.25
2023-05-05T20:25:57.345Z,25.19
2023-05-05T20:28:25.185Z,25.29
2023-05-05T20:30:52.912Z,25.24
2023-05-05T20:33:20.005Z,25.17
2023-05-05T20:35:48.650Z,25.15
2023-05-05T20:38:15.819Z,25.14
2023-05-05T20:40:42.849Z,25.11
2023-05-05T20:43:09.937Z,25.12
2023-05-05T20:45:37.058Z,25.13
2023-05-05T20:48:04.651Z,25.15
2023-05-05T20:50:31.747Z,25.25
2023-05-05T20:53:01.279Z,25.25
2023-05-05T20:55:28.989Z,25.20
2023-05-05T20:57:56.142Z,25.23
2023-05-05T21:00:23.529Z,25.25
2023-05-05T21:02:50.820Z,25.23
2023-05-05T21:05:18.138Z,25.28
2023-05-05T21:07:45.344Z,25.18
2023-05-05T21:10:13.897Z,25.13
2023-05-05T21:12:41.315Z,25.14
2023-05-05T21:15:09.339Z,25.05
2023-05-05T21:17:36.765Z,25.15
2023-05-05T21:20:04.330Z,25.05
2023-05-05T21:22:31.397Z,25.03
2023-05-05T21:25:08.387Z,25.17
2023-05-05T21:27:36.907Z,25.08
2023-05-05T21:30:04.221Z,25.16
2023-05-05T21:32:31.574Z,25.04
2023-05-05T21:34:58.920Z,25.01
2023-05-05T21:37:26.286Z,25.04
2023-05-05T21:39:53.366Z,25.05
2023-05-05T21:42:21.880Z,24.97
2023-05-05T21:44:50.630Z,25.00
2023-05-05T21:47:18.037Z,24.92
2023-05-05T21:49:45.210Z,25.06
2023-05-05T21:52:12.490Z,25.07
2023-05-05T21:54:39.749Z,25.13
2023-05-05T21:57:06.864Z,25.02
2023-05-05T21:59:34.489Z,25.04
2023-05-05T22:02:03.480Z,25.01
2023-05-05T22:04:30.743Z,24.96
2023-05-05T22:06:58.352Z,24.94
2023-05-05T22:09:25.528Z,24.95
2023-05-05T22:11:52.722Z,24.88
2023-05-05T22:14:19.924Z,24.87
2023-05-05T22:16:47.051Z,24.92
2023-05-05T22:19:15.912Z,24.94
2023-05-05T22:21:43.079Z,24.90
2023-05-05T22:24:10.197Z,24.83
2023-05-05T22:26:37.355Z,24.90
2023-05-05T22:29:04.390Z,24.93
2023-05-05T22:31:31.507Z,24.84
2023-05-05T22:33:58.698Z,24.91
2023-05-05T22:36:27.357Z,24.83
2023-05-05T22:38:54.956Z,24.77
2023-05-05T22:41:22.453Z,24.75
2023-05-05T22:43:49.574Z,24.84
2023-05-05T22:46:16.623Z,24.86
2023-05-05T22:48:43.764Z,24.87
2023-05-05T22:51:11.317Z,24.83
2023-05-05T22:53:39.951Z,24.74
2023-05-05T22:56:07.264Z,24.80
2023-05-05T22:58:34.317Z,24.78
2023-05-05T23:01:02.108Z,24.72
2023-05-05T23:03:29.227Z,24.74
2023-05-05T23:05:56.359Z,24.69
2023-05-05T23:08:23.478Z,24.65
2023-05-05T23:10:51.980Z,24.64
2023-05-05T23:13:19.102Z,24.67
2023-05-05T23:15:46.201Z,24.65
2023-05-05T23:18:13.283Z,24.50
2023-05-05T23:20:40.957Z,24.51
2023-05-05T23:23:08.094Z,24.57
2023-05-05T23:25:35.173Z,24.53
2023-05-05T23:28:04.043Z,24.48
2023-05-05T23:30:31.634Z,24.39
2023-05-05T23:32:58.752Z,24.37
2023-05-05T23:35:25.896Z,24.44
2023-05-05T23:37:52.954Z,24.35
2023-05-05T23:40:20.153Z,24.38
2023-05-05T23:42:47.209Z,24.35
2023-05-05T23:45:17.553Z,24.45
2023-05-05T23:47:45.946Z,24.37
2023-05-05T23:50:13.047Z,24.26
2023-05-05T23:52:40.209Z,24.30
2023-05-05T23:55:08.676Z,24.34
2023-05-05T23:57:36.493Z,24.34
